Time;durP1;ratioP1;P1;durP2;ratioP2;P2;SDS_P1;SDS_P2;PMS_P1;PMS_P2;Temp;Humidity;BMP_temperature;BMP_pressure;BME280_temperature;BME280_humidity;BME280_pressure;Samples;Min_cycle;Max_cycle;Signal;HPM_P1;HPM_P2
2021/07/04 00:01:23;;;;;;;19.00;14.47;;;21.10;99.90;;;;;;8356460;28;20834;-78
2021/07/04 00:05:28;;;;;;;22.97;16.37;;;21.10;99.90;;;;;;8351353;28;20183;-79
2021/07/04 00:09:29;;;;;;;15.87;14.13;;;21.00;99.90;;;;;;8360673;28;20184;-78
2021/07/04 00:13:31;;;;;;;15.53;13.93;;;20.90;99.90;;;;;;8354578;28;20560;-79
2021/07/04 00:17:32;;;;;;;19.60;15.87;;;20.90;99.90;;;;;;8357854;28;20270;-78
2021/07/04 00:21:33;;;;;;;18.23;15.77;;;20.90;99.90;;;;;;8358118;28;20449;-79
2021/07/04 00:25:35;;;;;;;17.27;15.07;;;20.80;99.90;;;;;;8355159;28;20212;-78
2021/07/04 00:29:35;;;;;;;21.27;16.03;;;20.80;99.90;;;;;;8356192;28;20191;-79
2021/07/04 00:33:36;;;;;;;17.30;14.97;;;20.80;99.90;;;;;;8349935;28;20549;-78
2021/07/04 00:37:37;;;;;;;18.60;15.57;;;20.80;99.90;;;;;;8366921;28;20183;-78
2021/07/04 00:41:38;;;;;;;16.47;14.77;;;20.70;99.90;;;;;;8360824;28;20763;-79
2021/07/04 00:45:39;;;;;;;20.50;15.43;;;20.70;99.90;;;;;;8355373;28;20449;-78
2021/07/04 00:49:39;;;;;;;18.83;15.60;;;20.70;99.90;;;;;;8361303;28;20275;-79
2021/07/04 00:53:40;;;;;;;20.20;14.60;;;20.70;99.90;;;;;;8378128;28;20476;-78
2021/07/04 00:57:43;;;;;;;15.93;14.03;;;20.80;99.90;;;;;;8353166;28;20274;-79
2021/07/04 01:01:44;;;;;;;15.80;14.27;;;20.70;99.90;;;;;;8363036;28;20183;-79
2021/07/04 01:05:44;;;;;;;17.00;14.40;;;20.70;99.90;;;;;;8368081;28;20456;-79
2021/07/04 01:09:45;;;;;;;21.23;15.50;;;20.70;99.90;;;;;;8364211;28;20688;-78
2021/07/04 01:13:46;;;;;;;18.33;14.00;;;20.70;99.90;;;;;;8360158;28;20222;-79
2021/07/04 01:17:48;;;;;;;23.20;15.57;;;20.70;99.90;;;;;;8359102;28;20534;-77
2021/07/04 01:21:49;;;;;;;20.50;15.47;;;20.60;99.90;;;;;;8347522;28;20184;-79
2021/07/04 01:25:53;;;;;;;18.53;14.40;;;20.70;99.90;;;;;;8373511;28;20445;-80
2021/07/04 01:29:53;;;;;;;15.63;14.03;;;20.60;99.90;;;;;;8362864;28;20191;-80
2021/07/04 01:33:54;;;;;;;15.63;13.43;;;20.60;99.90;;;;;;8360188;28;20468;-79
2021/07/04 01:37:55;;;;;;;17.47;14.33;;;20.50;99.90;;;;;;8346335;28;20195;-79
2021/07/04 01:41:56;;;;;;;18.37;15.47;;;20.60;99.90;;;;;;8348424;28;20222;-79
2021/07/04 01:45:57;;;;;;;15.50;13.63;;;20.60;99.90;;;;;;8354473;28;20184;-79
2021/07/04 01:49:57;;;;;;;20.20;16.50;;;20.60;99.90;;;;;;8355338;28;20453;-78
2021/07/04 01:53:58;;;;;;;21.87;16.70;;;20.60;99.90;;;;;;8350215;28;20199;-79
2021/07/04 01:57:59;;;;;;;16.70;13.13;;;20.60;99.90;;;;;;8349363;28;20179;-79
2021/07/04 02:01:59;;;;;;;18.90;16.00;;;20.60;99.90;;;;;;8350454;28;20300;-79
2021/07/04 02:06:00;;;;;;;18.63;14.63;;;20.70;99.90;;;;;;8373609;28;20180;-79
2021/07/04 02:10:04;;;;;;;24.83;16.87;;;20.70;99.90;;;;;;8368208;28;20215;-79
2021/07/04 02:14:04;;;;;;;24.23;15.90;;;20.70;99.90;;;;;;8360501;28;20504;-79
2021/07/04 02:18:07;;;;;;;16.37;13.40;;;20.70;99.90;;;;;;8361235;28;20441;-79
2021/07/04 02:22:10;;;;;;;16.57;13.30;;;20.70;99.90;;;;;;8348465;28;20554;-79
2021/07/04 02:26:11;;;;;;;18.97;13.30;;;20.60;99.90;;;;;;8365806;28;20551;-79
2021/07/04 02:30:12;;;;;;;14.53;12.43;;;20.60;99.90;;;;;;8360636;28;20448;-79
2021/07/04 02:34:13;;;;;;;16.37;12.00;;;20.50;99.90;;;;;;8356967;28;20203;-78
2021/07/04 02:38:14;;;;;;;13.83;12.43;;;20.50;99.90;;;;;;8347239;28;20533;-77
2021/07/04 02:42:15;;;;;;;16.10;12.40;;;20.50;99.90;;;;;;8356447;28;20943;-78
2021/07/04 02:46:16;;;;;;;15.33;11.83;;;20.50;99.90;;;;;;8355326;28;20962;-77
2021/07/04 02:50:21;;;;;;;13.63;12.20;;;20.50;99.90;;;;;;8357735;28;20191;-78
2021/07/04 02:54:21;;;;;;;14.20;12.00;;;20.40;99.90;;;;;;8358910;28;20557;-78
2021/07/04 02:58:22;;;;;;;21.03;14.00;;;20.40;99.90;;;;;;8358505;28;20460;-79
2021/07/04 03:02:23;;;;;;;14.30;12.80;;;20.30;99.90;;;;;;8360385;28;20244;-79
2021/07/04 03:06:24;;;;;;;15.10;13.27;;;20.20;99.90;;;;;;8358621;28;20183;-79
2021/07/04 03:10:24;;;;;;;14.90;12.77;;;20.10;99.90;;;;;;8367054;28;21211;-79
2021/07/04 03:14:25;;;;;;;18.07;15.70;;;20.10;99.90;;;;;;8364684;28;20231;-79
2021/07/04 03:18:26;;;;;;;21.10;16.27;;;20.10;99.90;;;;;;8362113;28;20186;-79
2021/07/04 03:22:26;;;;;;;29.37;18.23;;;20.10;99.90;;;;;;8359546;28;20210;-79
2021/07/04 03:26:27;;;;;;;24.53;17.13;;;20.00;99.90;;;;;;8378492;28;20186;-78
2021/07/04 03:30:27;;;;;;;25.23;17.93;;;20.00;99.90;;;;;;8361711;28;20183;-78
2021/07/04 03:34:28;;;;;;;26.37;19.07;;;20.00;99.90;;;;;;8371579;28;20211;-78
2021/07/04 03:38:29;;;;;;;28.37;19.37;;;20.00;99.90;;;;;;8368636;28;20183;-79
2021/07/04 03:42:30;;;;;;;23.20;17.93;;;20.00;99.90;;;;;;8368661;28;20183;-78
2021/07/04 03:46:31;;;;;;;24.17;17.80;;;20.10;99.90;;;;;;8358079;28;20203;-78
2021/07/04 03:50:32;;;;;;;22.27;16.00;;;20.20;99.90;;;;;;8376166;28;20453;-78
2021/07/04 03:54:32;;;;;;;16.37;12.73;;;20.20;99.90;;;;;;8360681;28;20545;-79
2021/07/04 03:58:33;;;;;;;25.97;17.13;;;20.30;99.90;;;;;;8361697;28;20306;-78
2021/07/04 04:02:34;;;;;;;25.50;19.17;;;20.30;99.90;;;;;;8361680;28;20691;-79
2021/07/04 04:06:34;;;;;;;30.03;20.13;;;20.40;99.90;;;;;;8370904;28;20271;-79
2021/07/04 04:10:35;;;;;;;25.93;18.30;;;20.40;99.90;;;;;;8369054;28;20233;-78
2021/07/04 04:14:36;;;;;;;24.73;20.27;;;20.40;99.90;;;;;;8357673;28;20331;-78
2021/07/04 04:18:37;;;;;;;20.57;18.37;;;20.50;99.90;;;;;;8359814;28;20278;-79
2021/07/04 04:22:38;;;;;;;19.50;16.57;;;20.50;99.90;;;;;;8362970;28;20540;-79
2021/07/04 04:26:39;;;;;;;23.03;17.90;;;20.50;99.90;;;;;;8365463;28;20183;-80
2021/07/04 04:30:40;;;;;;;19.83;16.20;;;20.60;99.90;;;;;;8361637;28;20180;-78
2021/07/04 04:34:41;;;;;;;20.97;16.00;;;20.60;99.90;;;;;;8369337;28;20565;-78
2021/07/04 04:38:42;;;;;;;19.60;16.87;;;20.60;99.90;;;;;;8368479;28;20229;-78
2021/07/04 04:42:43;;;;;;;24.33;18.37;;;20.60;99.90;;;;;;8358976;28;20501;-79
2021/07/04 04:46:43;;;;;;;20.77;16.67;;;20.60;99.90;;;;;;8360146;28;20256;-78
2021/07/04 04:50:44;;;;;;;20.47;16.27;;;20.60;99.90;;;;;;8380372;28;20226;-79
2021/07/04 04:54:45;;;;;;;23.00;17.57;;;20.70;99.90;;;;;;8362847;28;20310;-79
2021/07/04 04:58:45;;;;;;;21.23;14.87;;;20.80;99.90;;;;;;8363915;28;20181;-79
2021/07/04 05:02:47;;;;;;;23.13;15.60;;;20.90;99.90;;;;;;8367392;28;20187;-79
2021/07/04 05:06:48;;;;;;;22.27;16.67;;;21.00;99.90;;;;;;8359345;28;20193;-78
2021/07/04 05:10:48;;;;;;;22.00;15.90;;;21.00;99.90;;;;;;8374408;28;20978;-80
2021/07/04 05:14:49;;;;;;;19.90;15.30;;;21.10;99.90;;;;;;8363403;28;20499;-79
2021/07/04 05:18:50;;;;;;;11.07;9.93;;;21.20;99.90;;;;;;8366194;28;20207;-78
2021/07/04 05:22:50;;;;;;;14.40;10.57;;;21.30;99.90;;;;;;8367169;28;20243;-79
2021/07/04 05:26:51;;;;;;;9.40;8.50;;;21.40;99.90;;;;;;8382109;28;20194;-79
2021/07/04 05:30:52;;;;;;;9.17;8.23;;;21.60;99.90;;;;;;8362412;28;20664;-78
2021/07/04 05:34:52;;;;;;;9.53;8.23;;;21.80;99.90;;;;;;8363283;28;20205;-78
2021/07/04 05:38:53;;;;;;;11.03;8.83;;;22.00;99.90;;;;;;8362557;28;20667;-79
2021/07/04 05:42:54;;;;;;;8.53;7.73;;;22.30;99.90;;;;;;8375324;28;20463;-79
2021/07/04 05:46:56;;;;;;;7.77;7.17;;;22.60;99.90;;;;;;8371455;28;20190;-80
2021/07/04 05:50:56;;;;;;;8.23;7.43;;;22.90;99.10;;;;;;8360445;28;20483;-79
2021/07/04 05:54:57;;;;;;;7.50;6.33;;;23.20;98.90;;;;;;8360789;28;20435;-79
2021/07/04 05:58:59;;;;;;;10.33;8.13;;;23.50;98.50;;;;;;8362519;28;20258;-80
2021/07/04 06:02:59;;;;;;;9.30;7.63;;;23.80;98.10;;;;;;8358399;28;20274;-80
2021/07/04 06:07:00;;;;;;;7.73;6.63;;;24.10;97.70;;;;;;8360703;28;20424;-79
2021/07/04 06:11:00;;;;;;;10.13;8.27;;;24.30;97.50;;;;;;8354622;28;20188;-79
2021/07/04 06:15:01;;;;;;;12.70;8.07;;;24.50;96.70;;;;;;8374437;28;20242;-80
2021/07/04 06:19:05;;;;;;;8.50;6.80;;;24.60;97.00;;;;;;8364388;28;20192;-79
2021/07/04 06:23:05;;;;;;;11.50;7.60;;;24.80;96.70;;;;;;8364359;28;20215;-79
2021/07/04 06:27:06;;;;;;;10.70;7.90;;;25.00;96.40;;;;;;8357054;28;20449;-80
2021/07/04 06:31:07;;;;;;;9.00;7.53;;;25.00;96.50;;;;;;8370180;28;20190;-79
2021/07/04 06:35:10;;;;;;;8.57;7.73;;;25.00;96.70;;;;;;8354308;28;20207;-79
2021/07/04 06:39:10;;;;;;;8.83;7.90;;;25.00;96.30;;;;;;8362661;28;20179;-79
2021/07/04 06:43:11;;;;;;;11.00;7.47;;;25.00;95.50;;;;;;8374626;28;20576;-80
2021/07/04 06:47:12;;;;;;;10.23;7.17;;;25.00;95.20;;;;;;8370210;28;20207;-80
2021/07/04 06:51:13;;;;;;;8.50;7.60;;;25.00;95.20;;;;;;8361076;28;20214;-80
2021/07/04 06:55:14;;;;;;;7.67;6.83;;;25.10;95.40;;;;;;8374243;28;20207;-78
2021/07/04 06:59:15;;;;;;;8.03;7.23;;;25.40;95.20;;;;;;8357188;28;20180;-79
2021/07/04 07:03:16;;;;;;;8.97;6.90;;;25.60;94.80;;;;;;8349303;28;20456;-78
2021/07/04 07:07:17;;;;;;;7.50;6.57;;;25.90;94.30;;;;;;8348156;28;20244;-80
2021/07/04 07:11:18;;;;;;;9.40;6.70;;;26.00;92.70;;;;;;8353355;28;20198;-80
2021/07/04 07:15:18;;;;;;;8.43;6.93;;;25.90;92.90;;;;;;8363798;28;20525;-80
2021/07/04 07:19:19;;;;;;;8.80;7.70;;;25.80;93.50;;;;;;8363637;28;20241;-80
2021/07/04 07:23:20;;;;;;;8.43;7.40;;;25.50;93.60;;;;;;8373856;28;20218;-80
2021/07/04 07:27:20;;;;;;;8.43;7.60;;;25.40;93.70;;;;;;8357394;28;20191;-80
2021/07/04 07:31:21;;;;;;;9.63;8.10;;;25.60;93.90;;;;;;8357008;28;20310;-80
2021/07/04 07:35:22;;;;;;;9.37;8.03;;;25.80;93.60;;;;;;8365593;28;20208;-80
2021/07/04 07:39:23;;;;;;;10.27;7.70;;;25.90;93.60;;;;;;8363341;28;20190;-81
2021/07/04 07:43:23;;;;;;;11.27;8.30;;;26.00;93.50;;;;;;8367630;28;20193;-81
2021/07/04 07:47:24;;;;;;;8.57;6.67;;;26.20;92.80;;;;;;8358925;28;20477;-81
2021/07/04 07:51:25;;;;;;;8.03;6.80;;;26.40;93.10;;;;;;8364716;28;20194;-79
2021/07/04 07:55:28;;;;;;;7.40;6.70;;;26.70;92.60;;;;;;8366035;28;20217;-80
2021/07/04 07:59:30;;;;;;;6.80;6.20;;;26.80;92.80;;;;;;8347905;28;20579;-79
2021/07/04 08:03:31;;;;;;;9.63;6.80;;;26.90;92.00;;;;;;8371382;28;20575;-80
2021/07/04 08:07:32;;;;;;;7.60;6.93;;;26.70;91.40;;;;;;8366396;28;20442;-80
2021/07/04 08:11:32;;;;;;;7.03;5.90;;;26.80;91.70;;;;;;8356871;28;20758;-80
2021/07/04 08:15:33;;;;;;;6.20;5.60;;;26.90;91.20;;;;;;8370113;28;20243;-80
2021/07/04 08:19:34;;;;;;;6.37;5.87;;;27.10;90.90;;;;;;8365642;28;20194;-80
2021/07/04 08:23:35;;;;;;;5.90;5.30;;;27.20;90.90;;;;;;8354023;28;20191;-80
2021/07/04 08:27:35;;;;;;;6.47;5.70;;;27.60;90.30;;;;;;8357625;28;20194;-81
2021/07/04 08:31:36;;;;;;;8.03;6.13;;;27.90;89.20;;;;;;8357599;28;20176;-81
2021/07/04 08:35:37;;;;;;;6.67;6.00;;;28.10;90.10;;;;;;8360040;28;20206;-81
2021/07/04 08:39:37;;;;;;;10.53;6.20;;;28.70;90.00;;;;;;8384708;28;20251;-82
2021/07/04 08:43:39;;;;;;;7.37;5.57;;;29.30;86.90;;;;;;8368190;28;20191;-82
2021/07/04 08:47:40;;;;;;;5.60;5.00;;;29.40;87.10;;;;;;8371028;28;20600;-81
2021/07/04 08:51:41;;;;;;;7.60;5.87;;;29.40;83.60;;;;;;8355589;28;20442;-80
2021/07/04 08:55:43;;;;;;;5.30;4.90;;;29.20;84.40;;;;;;8369883;28;20489;-81
2021/07/04 08:59:49;;;;;;;7.77;5.90;;;29.10;83.90;;;;;;8366308;28;20495;-81
2021/07/04 09:04:14;;;;;;;7.80;5.80;;;29.00;85.80;;;;;;8366500;28;20476;-81
2021/07/04 09:08:21;;;;;;;10.47;6.10;;;28.50;87.10;;;;;;8355952;28;20438;-80
2021/07/04 09:12:39;;;;;;;9.33;7.13;;;27.70;90.10;;;;;;8355137;28;20450;-77
2021/07/04 09:16:48;;;;;;;12.10;7.13;;;27.10;91.60;;;;;;8349486;28;20482;-78
2021/07/04 09:20:50;;;;;;;13.70;8.70;;;26.70;92.60;;;;;;8373863;28;20501;-78
2021/07/04 09:24:50;;;;;;;8.83;7.70;;;26.50;93.90;;;;;;8359238;28;20450;-78
2021/07/04 09:28:51;;;;;;;7.03;6.43;;;26.40;94.50;;;;;;8371793;28;20489;-78
2021/07/04 09:32:51;;;;;;;8.83;6.00;;;26.40;94.00;;;;;;8351474;28;20314;-78
2021/07/04 09:36:55;;;;;;;7.10;6.20;;;26.20;94.10;;;;;;8365838;28;20190;-77
2021/07/04 09:40:56;;;;;;;8.60;6.83;;;26.10;94.70;;;;;;8359470;28;20206;-78
2021/07/04 09:44:57;;;;;;;7.10;6.10;;;26.00;95.00;;;;;;8350659;28;20481;-78
2021/07/04 09:48:57;;;;;;;7.50;5.87;;;25.80;94.80;;;;;;8372018;28;20461;-78
2021/07/04 09:53:01;;;;;;;9.97;7.00;;;25.60;95.40;;;;;;8369677;28;20227;-78
2021/07/04 09:57:05;;;;;;;7.53;6.73;;;25.30;96.30;;;;;;8364664;28;20191;-78
2021/07/04 10:01:06;;;;;;;7.77;6.97;;;25.00;96.90;;;;;;8351944;28;20438;-78
2021/07/04 10:05:17;;;;;;;10.20;8.20;;;24.80;97.70;;;;;;8362060;28;20471;-78
2021/07/04 10:09:19;;;;;;;7.93;7.13;;;24.40;98.30;;;;;;8347907;28;20474;-77
2021/07/04 10:13:20;;;;;;;7.50;6.87;;;24.20;99.50;;;;;;8360844;28;20456;-77
2021/07/04 10:17:22;;;;;;;8.70;7.10;;;24.50;99.90;;;;;;8370121;28;20477;-78
2021/07/04 10:21:24;;;;;;;7.87;6.70;;;24.80;98.90;;;;;;8370824;28;20203;-79
2021/07/04 10:25:25;;;;;;;8.20;6.60;;;25.10;98.80;;;;;;8368895;28;20486;-79
2021/07/04 10:29:29;;;;;;;6.40;5.80;;;25.20;98.00;;;;;;8358074;28;20498;-79
2021/07/04 10:33:34;;;;;;;5.80;5.17;;;25.20;97.30;;;;;;8382488;28;20215;-80
2021/07/04 10:37:38;;;;;;;4.67;4.37;;;25.60;97.40;;;;;;8374314;28;20494;-80
2021/07/04 10:41:53;;;;;;;5.30;4.30;;;26.30;95.50;;;;;;8355265;28;20484;-80
2021/07/04 10:45:54;;;;;;;4.87;4.33;;;26.70;94.30;;;;;;8352068;28;20457;-80
2021/07/04 10:50:07;;;;;;;5.20;4.70;;;26.80;94.30;;;;;;8361935;28;20449;-81
2021/07/04 10:54:08;;;;;;;5.20;4.67;;;27.10;94.20;;;;;;8364464;28;21140;-80
2021/07/04 10:58:09;;;;;;;5.23;4.83;;;27.10;92.80;;;;;;8351143;28;20442;-79
2021/07/04 11:02:09;;;;;;;4.83;4.40;;;27.00;93.10;;;;;;8352744;28;20230;-81
2021/07/04 11:06:10;;;;;;;4.70;4.30;;;26.90;93.50;;;;;;8367513;28;20201;-79
2021/07/04 11:10:15;;;;;;;5.17;4.77;;;26.70;92.80;;;;;;8366976;28;20189;-77
2021/07/04 11:14:16;;;;;;;4.30;3.90;;;26.20;93.40;;;;;;8356184;28;20303;-79
2021/07/04 11:18:18;;;;;;;8.23;5.10;;;25.70;93.10;;;;;;8361458;28;20438;-79
2021/07/04 11:22:58;;;;;;;8.60;4.70;;;25.50;93.80;;;;;;8350834;28;20179;-79
2021/07/04 11:27:23;;;;;;;5.17;4.57;;;25.20;94.60;;;;;;8357379;28;20449;-77
2021/07/04 11:31:25;;;;;;;10.03;4.23;;;25.10;94.70;;;;;;8374266;28;20457;-79
2021/07/04 11:35:25;;;;;;;5.63;5.10;;;25.00;94.80;;;;;;8360899;28;20469;-76
2021/07/04 11:39:26;;;;;;;6.13;4.90;;;25.00;94.90;;;;;;8348699;28;20446;-77
2021/07/04 11:43:28;;;;;;;4.67;4.20;;;24.90;95.20;;;;;;8325906;28;20263;-77
2021/07/04 11:47:29;;;;;;;3.93;3.63;;;25.00;95.30;;;;;;8354623;28;20215;-79
2021/07/04 11:51:51;;;;;;;5.77;4.87;;;25.00;94.90;;;;;;8368564;28;20889;-81
2021/07/04 11:56:01;;;;;;;5.53;5.10;;;25.00;95.60;;;;;;8376992;28;20204;-80
2021/07/04 12:00:09;;;;;;;5.50;4.13;;;25.10;95.80;;;;;;8376692;28;20495;-78
2021/07/04 12:04:10;;;;;;;4.47;4.03;;;25.00;95.90;;;;;;8393964;28;20424;-79
2021/07/04 12:08:11;;;;;;;6.03;3.80;;;25.10;95.60;;;;;;8378297;28;20500;-78
2021/07/04 12:12:25;;;;;;;7.60;4.10;;;25.30;95.40;;;;;;8395837;28;20195;-80
2021/07/04 12:16:26;;;;;;;8.53;4.27;;;25.50;94.70;;;;;;8387971;28;20223;-80
2021/07/04 12:20:28;;;;;;;4.00;3.70;;;25.60;94.60;;;;;;8396341;28;20529;-81
2021/07/04 12:24:46;;;;;;;4.40;3.27;;;25.80;94.30;;;;;;8382977;28;20189;-78
2021/07/04 12:28:48;;;;;;;4.10;3.70;;;26.00;94.10;;;;;;8396821;28;20445;-79
2021/07/04 12:32:52;;;;;;;4.43;4.13;;;26.10;93.70;;;;;;8381845;28;20503;-78
2021/07/04 12:36:53;;;;;;;2.80;2.67;;;26.10;93.60;;;;;;8393205;28;20433;-79
2021/07/04 12:41:08;;;;;;;6.07;3.40;;;26.10;92.90;;;;;;8383666;28;20461;-80
2021/07/04 12:45:11;;;;;;;4.20;3.90;;;26.10;92.80;;;;;;8380365;28;20167;-79
2021/07/04 12:49:15;;;;;;;4.77;2.83;;;25.90;92.80;;;;;;8372226;28;20441;-78
2021/07/04 12:53:16;;;;;;;2.10;1.40;;;25.50;91.40;;;;;;8377147;28;20902;-80
2021/07/04 12:57:33;;;;;;;7.10;2.40;;;24.80;91.10;;;;;;8391910;28;20409;-80
2021/07/04 13:01:38;;;;;;;2.27;1.10;;;23.80;92.30;;;;;;8374421;28;20465;-80
2021/07/04 13:05:39;;;;;;;3.47;1.70;;;23.10;93.10;;;;;;8379617;28;20449;-81
2021/07/04 13:09:39;;;;;;;3.67;1.60;;;22.50;93.90;;;;;;8377493;28;20480;-79
2021/07/04 13:14:02;;;;;;;4.90;2.10;;;22.10;94.70;;;;;;8392734;28;20600;-77
2021/07/04 13:18:04;;;;;;;5.90;3.50;;;21.70;96.20;;;;;;8363798;28;20196;-77
2021/07/04 13:22:26;;;;;;;11.93;3.77;;;21.20;98.20;;;;;;8373964;28;20446;-77
2021/07/04 13:26:34;;;;;;;4.57;3.07;;;20.60;99.90;;;;;;8360461;28;20444;-76
2021/07/04 13:30:55;;;;;;;6.50;3.80;;;20.10;99.90;;;;;;8375970;28;20442;-78
2021/07/04 13:34:55;;;;;;;2.83;2.50;;;19.70;99.90;;;;;;8360593;28;20469;-80
2021/07/04 13:39:01;;;;;;;2.60;1.60;;;19.40;99.90;;;;;;8380018;28;20434;-78
2021/07/04 13:43:03;;;;;;;2.13;1.63;;;19.30;99.90;;;;;;8365190;28;20184;-80
2021/07/04 13:47:05;;;;;;;3.23;1.77;;;19.20;99.90;;;;;;8368525;28;20493;-79
2021/07/04 13:51:06;;;;;;;2.80;1.10;;;19.10;99.90;;;;;;8374850;28;20576;-78
2021/07/04 13:55:07;;;;;;;3.20;1.20;;;19.10;99.90;;;;;;8374496;28;20465;-78
2021/07/04 13:59:08;;;;;;;3.47;1.70;;;19.10;99.90;;;;;;8364958;28;20193;-77
2021/07/04 14:03:09;;;;;;;1.50;1.40;;;19.20;99.90;;;;;;8383227;28;20442;-79
2021/07/04 14:07:10;;;;;;;1.87;1.50;;;19.30;99.90;;;;;;8357214;28;20648;-78
2021/07/04 14:11:11;;;;;;;4.10;1.23;;;19.50;99.90;;;;;;8370215;28;20985;-81
2021/07/04 14:15:12;;;;;;;4.87;1.03;;;19.60;99.90;;;;;;8371330;28;20651;-78
2021/07/04 14:19:13;;;;;;;4.60;1.80;;;19.80;99.90;;;;;;8357747;28;20210;-79
2021/07/04 14:23:13;;;;;;;1.83;0.73;;;19.90;99.90;;;;;;8364951;28;20441;-80
2021/07/04 14:27:14;;;;;;;4.03;1.37;;;20.10;99.90;;;;;;8364760;28;20195;-78
2021/07/04 14:31:15;;;;;;;2.90;1.00;;;20.20;99.90;;;;;;8367853;28;20183;-80
2021/07/04 14:35:21;;;;;;;1.93;1.20;;;20.30;99.90;;;;;;8356437;28;20372;-79
2021/07/04 14:39:22;;;;;;;1.57;0.97;;;20.20;99.90;;;;;;8358534;28;20474;-77
2021/07/04 14:43:22;;;;;;;1.63;0.80;;;20.20;99.90;;;;;;8351576;28;20453;-79
2021/07/04 14:47:23;;;;;;;3.07;1.20;;;20.10;99.90;;;;;;8363448;28;20189;-78
2021/07/04 14:51:24;;;;;;;0.97;0.90;;;20.00;99.90;;;;;;8363640;28;20183;-79
2021/07/04 14:55:30;;;;;;;2.30;0.93;;;19.90;99.90;;;;;;8365748;28;20203;-79
2021/07/04 14:59:31;;;;;;;1.90;1.10;;;19.90;99.90;;;;;;8369401;28;20466;-79
2021/07/04 15:03:33;;;;;;;0.87;0.87;;;19.90;99.90;;;;;;8369841;28;21002;-80
2021/07/04 15:07:34;;;;;;;4.10;1.30;;;19.80;99.90;;;;;;8360867;28;20184;-80
2021/07/04 15:11:36;;;;;;;4.33;1.57;;;19.80;99.90;;;;;;8363847;28;20437;-79
2021/07/04 15:15:38;;;;;;;1.60;0.83;;;19.90;99.90;;;;;;8368117;28;20226;-79
2021/07/04 15:19:39;;;;;;;1.40;0.90;;;19.90;99.90;;;;;;8362530;28;20442;-79
2021/07/04 15:23:39;;;;;;;2.87;1.17;;;20.00;99.90;;;;;;8378011;28;20438;-79
2021/07/04 15:27:40;;;;;;;1.30;1.20;;;19.90;99.90;;;;;;8371787;28;20199;-78
2021/07/04 15:31:41;;;;;;;2.03;1.20;;;19.90;99.90;;;;;;8382361;28;20183;-79
2021/07/04 15:35:42;;;;;;;1.97;1.40;;;20.00;99.90;;;;;;8361863;28;20461;-78
2021/07/04 15:39:42;;;;;;;2.27;1.20;;;20.00;99.90;;;;;;8371271;28;20580;-78
2021/07/04 15:43:43;;;;;;;5.50;1.40;;;20.00;99.90;;;;;;8376321;28;20191;-78
2021/07/04 15:47:44;;;;;;;3.63;1.60;;;19.90;99.90;;;;;;8358908;28;20341;-78
2021/07/04 15:51:45;;;;;;;9.20;1.30;;;19.90;99.90;;;;;;8369962;28;20175;-78
2021/07/04 15:55:46;;;;;;;1.97;1.00;;;19.70;99.90;;;;;;8369128;28;20511;-78
2021/07/04 15:59:47;;;;;;;3.43;1.63;;;19.50;99.90;;;;;;8358545;28;20434;-77
2021/07/04 16:03:48;;;;;;;1.97;1.70;;;19.30;99.90;;;;;;8362236;28;20448;-78
2021/07/04 16:07:50;;;;;;;2.53;1.23;;;19.50;99.90;;;;;;8352647;28;23274;-78
2021/07/04 16:11:51;;;;;;;2.10;1.20;;;19.50;99.90;;;;;;8360468;28;20186;-77
2021/07/04 16:15:51;;;;;;;1.80;1.37;;;19.50;99.90;;;;;;8371171;28;20477;-78
2021/07/04 16:19:52;;;;;;;2.70;1.40;;;19.50;99.90;;;;;;8352028;28;20202;-78
2021/07/04 16:23:54;;;;;;;4.83;0.90;;;19.80;99.90;;;;;;8353786;28;20191;-79
2021/07/04 16:27:55;;;;;;;1.10;0.93;;;20.10;99.90;;;;;;8353660;28;20270;-78
2021/07/04 16:31:56;;;;;;;2.27;1.20;;;20.40;99.90;;;;;;8364151;28;20442;-78
2021/07/04 16:35:57;;;;;;;1.90;1.13;;;20.70;99.90;;;;;;8367339;28;20214;-80
2021/07/04 16:39:58;;;;;;;4.00;1.83;;;21.00;99.90;;;;;;8368607;28;21077;-79
2021/07/04 16:43:59;;;;;;;1.30;1.20;;;21.30;99.90;;;;;;8372316;28;20889;-80
2021/07/04 16:48:00;;;;;;;1.30;1.00;;;21.50;99.90;;;;;;8367645;28;20177;-80
2021/07/04 16:52:00;;;;;;;1.93;1.10;;;21.60;99.90;;;;;;8356293;28;20221;-79
2021/07/04 16:56:01;;;;;;;1.73;0.97;;;21.80;99.90;;;;;;8366792;28;20480;-79
2021/07/04 17:00:06;;;;;;;1.50;1.10;;;21.70;99.90;;;;;;8357830;28;20187;-79
2021/07/04 17:04:06;;;;;;;3.27;1.10;;;21.50;99.90;;;;;;8370747;28;20448;-80
2021/07/04 17:08:07;;;;;;;1.43;1.33;;;21.30;99.90;;;;;;8369639;28;20555;-80
2021/07/04 17:12:11;;;;;;;1.20;1.20;;;21.30;99.90;;;;;;8354614;28;20258;-80
2021/07/04 17:16:12;;;;;;;1.33;1.23;;;21.80;99.90;;;;;;8372959;28;20246;-80
2021/07/04 17:20:16;;;;;;;4.43;1.10;;;22.00;99.90;;;;;;8363763;28;20448;-80
2021/07/04 17:24:17;;;;;;;1.83;1.10;;;22.00;99.90;;;;;;8356029;28;20465;-81
2021/07/04 17:28:17;;;;;;;5.33;1.70;;;22.20;99.90;;;;;;8368344;28;20452;-81
2021/07/04 17:32:18;;;;;;;1.73;1.10;;;22.20;99.90;;;;;;8353055;28;20183;-80
2021/07/04 17:36:20;;;;;;;1.10;1.00;;;22.20;99.90;;;;;;8355172;28;20206;-82
2021/07/04 17:40:24;;;;;;;1.00;1.00;;;22.30;99.80;;;;;;8363115;28;20450;-82
2021/07/04 17:44:24;;;;;;;2.13;1.10;;;22.20;99.70;;;;;;8361216;28;20444;-82
2021/07/04 17:48:25;;;;;;;1.37;1.27;;;22.00;99.90;;;;;;8353626;28;20454;-82
2021/07/04 17:52:26;;;;;;;2.70;1.10;;;22.00;99.90;;;;;;8369649;28;20187;-81
2021/07/04 17:56:26;;;;;;;2.43;0.90;;;22.10;99.80;;;;;;8363007;28;20218;-82
2021/07/04 18:00:27;;;;;;;0.80;0.80;;;22.40;99.30;;;;;;8371202;28;20195;-82
2021/07/04 18:04:28;;;;;;;3.40;1.73;;;22.50;98.90;;;;;;8358773;28;20198;-82
2021/07/04 18:08:29;;;;;;;1.67;1.30;;;22.40;99.30;;;;;;8387991;28;20216;-82
2021/07/04 18:12:30;;;;;;;1.30;1.20;;;22.40;99.20;;;;;;8379656;28;20210;-82
2021/07/04 18:16:30;;;;;;;1.50;1.40;;;22.30;98.90;;;;;;8374944;28;20492;-83
2021/07/04 18:20:31;;;;;;;4.53;1.50;;;22.30;99.60;;;;;;8369944;28;20200;-83
2021/07/04 18:24:32;;;;;;;1.77;1.47;;;22.40;99.90;;;;;;8362735;28;20187;-82
2021/07/04 18:28:33;;;;;;;1.50;1.40;;;22.50;99.90;;;;;;8373642;28;20518;-82
2021/07/04 18:32:34;;;;;;;1.83;1.73;;;22.50;99.90;;;;;;8351378;28;20453;-82
2021/07/04 18:36:35;;;;;;;1.20;1.10;;;22.40;99.20;;;;;;8354586;28;20521;-83
2021/07/04 18:40:40;;;;;;;5.43;1.37;;;22.20;99.90;;;;;;8373809;28;20190;-83
2021/07/04 18:44:41;;;;;;;1.80;1.50;;;22.00;99.60;;;;;;8373247;28;20197;-83
2021/07/04 18:48:45;;;;;;;3.23;1.40;;;21.90;99.90;;;;;;8363216;28;20452;-79
2021/07/04 18:52:47;;;;;;;1.50;1.17;;;21.70;99.90;;;;;;8360219;28;20211;-77
2021/07/04 18:56:47;;;;;;;1.57;1.47;;;21.70;99.90;;;;;;8342398;28;20470;-78
2021/07/04 19:00:48;;;;;;;3.53;2.13;;;21.60;99.90;;;;;;8367423;28;20434;-78
2021/07/04 19:04:49;;;;;;;6.23;5.07;;;21.40;99.90;;;;;;8366356;28;20942;-79
2021/07/04 19:08:50;;;;;;;6.70;4.60;;;21.30;99.90;;;;;;8376650;28;20194;-79
2021/07/04 19:12:54;;;;;;;7.40;2.83;;;21.10;99.90;;;;;;8371732;28;20474;-79
2021/07/04 19:16:57;;;;;;;2.20;1.53;;;21.00;99.90;;;;;;8352860;28;20277;-78
2021/07/04 19:20:57;;;;;;;2.50;1.53;;;20.90;99.90;;;;;;8352547;28;20430;-78
2021/07/04 19:24:58;;;;;;;1.47;1.37;;;20.70;99.90;;;;;;8350423;28;20442;-78
2021/07/04 19:29:03;;;;;;;2.27;2.07;;;20.60;99.90;;;;;;8349013;28;20226;-77
2021/07/04 19:33:03;;;;;;;1.87;1.77;;;20.50;99.90;;;;;;8352632;28;20183;-78
2021/07/04 19:37:04;;;;;;;2.77;1.60;;;20.40;99.90;;;;;;8369515;28;20460;-79
2021/07/04 19:41:05;;;;;;;2.53;1.87;;;20.30;99.90;;;;;;8360478;28;20176;-79
2021/07/04 19:45:08;;;;;;;2.33;2.10;;;20.10;99.90;;;;;;8362970;28;20433;-79
2021/07/04 19:49:08;;;;;;;2.60;2.43;;;20.10;99.90;;;;;;8365936;28;20183;-78
2021/07/04 19:53:09;;;;;;;5.00;3.27;;;20.00;99.90;;;;;;8365622;28;20443;-78
2021/07/04 19:57:12;;;;;;;12.60;2.77;;;19.90;99.90;;;;;;8363647;28;20184;-79
2021/07/04 20:01:13;;;;;;;3.20;2.90;;;19.80;99.90;;;;;;8371410;28;20179;-78
2021/07/04 20:05:14;;;;;;;3.77;2.33;;;19.70;99.90;;;;;;8365240;28;21033;-79
2021/07/04 20:09:15;;;;;;;3.50;2.90;;;19.60;99.90;;;;;;8381816;28;20545;-78
2021/07/04 20:13:16;;;;;;;7.50;2.70;;;19.40;99.90;;;;;;8379539;28;20511;-79
2021/07/04 20:17:17;;;;;;;4.50;2.60;;;19.30;99.90;;;;;;8385604;28;20186;-80
2021/07/04 20:21:20;;;;;;;5.30;2.60;;;19.30;99.90;;;;;;8369087;28;20263;-79
2021/07/04 20:25:22;;;;;;;4.63;3.30;;;19.20;99.90;;;;;;8371454;28;20251;-81
2021/07/04 20:29:23;;;;;;;13.00;4.60;;;19.10;99.90;;;;;;8379071;28;20440;-81
2021/07/04 20:33:23;;;;;;;4.80;2.80;;;19.10;99.90;;;;;;8386874;28;20469;-79
2021/07/04 20:37:24;;;;;;;4.83;2.83;;;19.00;99.90;;;;;;8378201;28;20432;-78
2021/07/04 20:41:25;;;;;;;5.87;3.20;;;19.00;99.90;;;;;;8377733;28;20174;-79
2021/07/04 20:45:25;;;;;;;4.03;3.57;;;18.90;99.90;;;;;;8381608;28;20190;-80
2021/07/04 20:49:26;;;;;;;4.20;2.70;;;18.80;99.90;;;;;;8388387;28;20188;-80